NCAR-RAP Real-Time Weather Data

Output produced by METARs form (17 December 2018  08:45 UTC)
found at http://weather.rap.ucar.edu/surface/
 
Conditions at: KSPG observed 17 December 2018  08:39 UTC
Temperature: 13.9°C (57°F)
Dewpoint: 11.1°C (52°F) [RH = 83%]
Pressure (altimeter): 30.12 inches Hg (1020.1 mb)
Winds: from the N (10 degrees) at 12 MPH (10 knots; 5.2 m/s)
Visibility: 10 or more miles (16+ km)
Ceiling: 3400 feet AGL
Clouds: scattered clouds at 1200 feet AGL
overcast cloud deck at 3400 feet AGL
Present Weather: automated observation with no human augmentation;
there may or may not be significant weather present at this time
KSPG 170839Z AUTO 01010KT 10SM SCT012 OVC034 14/11 A3012 RMK AO2 T01390111

Conditions at: KSPG observed 17 December 2018  08:32 UTC
Temperature: 14.4°C (58°F)
Dewpoint: 11.7°C (53°F) [RH = 84%]
Pressure (altimeter): 30.12 inches Hg (1020.1 mb)
Winds: from the N (360 degrees) at 12 MPH (10 knots; 5.2 m/s)
Visibility: 10 or more miles (16+ km)
Ceiling: 1200 feet AGL
Clouds: broken clouds at 1200 feet AGL
overcast cloud deck at 3200 feet AGL
Present Weather: automated observation with no human augmentation;
there may or may not be significant weather present at this time
KSPG 170832Z AUTO 36010KT 10SM BKN012 OVC032 14/12 A3012 RMK AO2 T01440117

Conditions at: KSPG observed 17 December 2018  07:53 UTC
Temperature: 15.6°C (60°F)
Dewpoint: 11.1°C (52°F) [RH = 75%]
Pressure (altimeter): 30.12 inches Hg (1020.1 mb)
[Sea-level pressure: 1019.8 mb]
Winds: from the N (350 degrees) at 9 MPH (8 knots; 4.2 m/s)
Visibility: 10 or more miles (16+ km)
Ceiling: 3100 feet AGL
Clouds: overcast cloud deck at 3100 feet AGL
Present Weather: automated observation with no human augmentation;
there may or may not be significant weather present at this time
KSPG 170753Z AUTO 35008KT 10SM OVC031 16/11 A3012 RMK AO2 SLP198 T01560111

Conditions at: KSPG observed 17 December 2018  07:15 UTC
Temperature: 15.6°C (60°F)
Dewpoint: 11.1°C (52°F) [RH = 75%]
Pressure (altimeter): 30.11 inches Hg (1019.7 mb)
Winds: from the N (350 degrees) at 5 MPH (4 knots; 2.1 m/s)
Visibility: 10 or more miles (16+ km)
Ceiling: 3000 feet AGL
Clouds: broken clouds at 3000 feet AGL
Present Weather: automated observation with no human augmentation;
there may or may not be significant weather present at this time
KSPG 170715Z AUTO 35004KT 10SM BKN030 16/11 A3011 RMK AO2 T01560111

Conditions at: KSPG observed 17 December 2018  07:08 UTC
Temperature: 15.6°C (60°F)
Dewpoint: 11.1°C (52°F) [RH = 75%]
Pressure (altimeter): 30.11 inches Hg (1019.7 mb)
Winds: from the N (360 degrees) at 6 MPH (5 knots; 2.6 m/s)
Visibility: 10 or more miles (16+ km)
Ceiling: 2800 feet AGL
Clouds: broken clouds at 2800 feet AGL
Present Weather: automated observation with no human augmentation;
there may or may not be significant weather present at this time
KSPG 170708Z AUTO 36005KT 10SM BKN028 16/11 A3011 RMK AO2 T01560111

Conditions at: KSPG observed 17 December 2018  06:53 UTC
Temperature: 15.6°C (60°F)
Dewpoint: 11.1°C (52°F) [RH = 75%]
Pressure (altimeter): 30.11 inches Hg (1019.7 mb)
[Sea-level pressure: 1019.7 mb]
Winds: from the NNW (330 degrees) at 6 MPH (5 knots; 2.6 m/s)
Visibility: 10 or more miles (16+ km)
Ceiling: at least 12,000 feet AGL
Clouds: few clouds at 2800 feet AGL
Present Weather: automated observation with no human augmentation;
there may or may not be significant weather present at this time
KSPG 170653Z AUTO 33005KT 10SM FEW028 16/11 A3011 RMK AO2 SLP197 T01560111

Conditions at: KSPG observed 17 December 2018  05:53 UTC
Temperature: 15.6°C (60°F)
Dewpoint: 11.7°C (53°F) [RH = 78%]
Pressure (altimeter): 30.12 inches Hg (1020.1 mb)
[Sea-level pressure: 1019.9 mb]
Winds: from the NNW (340 degrees) at 6 MPH (5 knots; 2.6 m/s)
Visibility: 10 or more miles (16+ km)
Ceiling: at least 12,000 feet AGL
Clouds: sky clear below 12,000 feet AGL
Present Weather: automated observation with no human augmentation;
there may or may not be significant weather present at this time
KSPG 170553Z AUTO 34005KT 10SM CLR 16/12 A3012 RMK AO2 SLP199 T01560117 10167 20156 58008

Conditions at: KSPG observed 17 December 2018  04:53 UTC
Temperature: 16.7°C (62°F)
Dewpoint: 11.7°C (53°F) [RH = 72%]
Pressure (altimeter): 30.13 inches Hg (1020.4 mb)
[Sea-level pressure: 1020.4 mb]
Winds: from the NNW (330 degrees) at 10 MPH (9 knots; 4.7 m/s)
Visibility: 10 or more miles (16+ km)
Ceiling: 3300 feet AGL
Clouds: few clouds at 2300 feet AGL
broken clouds at 3300 feet AGL
Present Weather: automated observation with no human augmentation;
there may or may not be significant weather present at this time
KSPG 170453Z AUTO 33009KT 10SM FEW023 BKN033 17/12 A3013 RMK AO2 SLP204 T01670117 402110161

Conditions at: KSPG observed 17 December 2018  04:14 UTC
Temperature: 16.7°C (62°F)
Dewpoint: 12.2°C (54°F) [RH = 75%]
Pressure (altimeter): 30.14 inches Hg (1020.7 mb)
Winds: from the N (350 degrees) at 7 MPH (6 knots; 3.1 m/s)
Visibility: 10 or more miles (16+ km)
Ceiling: 3100 feet AGL
Clouds: overcast cloud deck at 3100 feet AGL
Present Weather: automated observation with no human augmentation;
there may or may not be significant weather present at this time
KSPG 170414Z AUTO 35006KT 10SM OVC031 17/12 A3014 RMK AO2 T01670122

Conditions at: KSPG observed 17 December 2018  04:02 UTC
Temperature: 16.7°C (62°F)
Dewpoint: 12.2°C (54°F) [RH = 75%]
Pressure (altimeter): 30.15 inches Hg (1021.1 mb)
Winds: from the N (350 degrees) at 6 MPH (5 knots; 2.6 m/s)
Visibility: 10 or more miles (16+ km)
Ceiling: 2900 feet AGL
Clouds: overcast cloud deck at 2900 feet AGL
Present Weather: automated observation with no human augmentation;
there may or may not be significant weather present at this time
KSPG 170402Z AUTO 35005KT 10SM OVC029 17/12 A3015 RMK AO2 T01670122

Conditions at: KSPG observed 17 December 2018  03:53 UTC
Temperature: 16.7°C (62°F)
Dewpoint: 11.7°C (53°F) [RH = 72%]
Pressure (altimeter): 30.15 inches Hg (1021.1 mb)
[Sea-level pressure: 1020.9 mb]
Winds: from the NNW (340 degrees) at 3 MPH (3 knots; 1.6 m/s)
Visibility: 10 or more miles (16+ km)
Ceiling: 3000 feet AGL
Clouds: overcast cloud deck at 3000 feet AGL
Present Weather: automated observation with no human augmentation;
there may or may not be significant weather present at this time
KSPG 170353Z AUTO 34003KT 10SM OVC030 17/12 A3015 RMK AO2 SLP209 T01670117

Conditions at: KSPG observed 17 December 2018  02:53 UTC
Temperature: 16.7°C (62°F)
Dewpoint: 12.8°C (55°F) [RH = 78%]
Pressure (altimeter): 30.14 inches Hg (1020.7 mb)
[Sea-level pressure: 1020.7 mb]
Winds: from the N (350 degrees) at 5 MPH (4 knots; 2.1 m/s)
Visibility: 10 or more miles (16+ km)
Ceiling: 3500 feet AGL
Clouds: overcast cloud deck at 3500 feet AGL
Present Weather: automated observation with no human augmentation;
there may or may not be significant weather present at this time
KSPG 170253Z AUTO 35004KT 10SM OVC035 17/13 A3014 RMK AO2 SLP207 T01670128 51007

Conditions at: KSPG observed 17 December 2018  01:53 UTC
Temperature: 16.7°C (62°F)
Dewpoint: 12.2°C (54°F) [RH = 75%]
Pressure (altimeter): 30.14 inches Hg (1020.7 mb)
[Sea-level pressure: 1020.5 mb]
Winds: from the NNW (340 degrees) at 6 MPH (5 knots; 2.6 m/s)
Visibility: 10 or more miles (16+ km)
Ceiling: 3300 feet AGL
Clouds: overcast cloud deck at 3300 feet AGL
Present Weather: automated observation with no human augmentation;
there may or may not be significant weather present at this time
KSPG 170153Z AUTO 34005KT 10SM OVC033 17/12 A3014 RMK AO2 SLP205 T01670122

Conditions at: KSPG observed 17 December 2018  01:32 UTC
Temperature: 16.7°C (62°F)
Dewpoint: 12.2°C (54°F) [RH = 75%]
Pressure (altimeter): 30.14 inches Hg (1020.7 mb)
Winds: from the N (10 degrees) at 6 MPH (5 knots; 2.6 m/s)
Visibility: 10 or more miles (16+ km)
Ceiling: 3000 feet AGL
Clouds: broken clouds at 3000 feet AGL
overcast cloud deck at 3400 feet AGL
Present Weather: no significant weather observed at this time
KSPG 170132Z 01005KT 10SM BKN030 OVC034 17/12 A3014 RMK AO2 T01670122

Conditions at: KSPG observed 17 December 2018  01:02 UTC
Temperature: 16.1°C (61°F)
Dewpoint: 12.2°C (54°F) [RH = 78%]
Pressure (altimeter): 30.14 inches Hg (1020.7 mb)
Winds: from the NNW (340 degrees) at 5 MPH (4 knots; 2.1 m/s)
Visibility: 10 or more miles (16+ km)
Ceiling: 2900 feet AGL
Clouds: overcast cloud deck at 2900 feet AGL
Present Weather: no significant weather observed at this time
KSPG 170102Z 34004KT 10SM OVC029 16/12 A3014 RMK AO2 T01610122

Conditions at: KSPG observed 17 December 2018  00:53 UTC
Temperature: 16.1°C (61°F)
Dewpoint: 12.2°C (54°F) [RH = 78%]
Pressure (altimeter): 30.14 inches Hg (1020.7 mb)
[Sea-level pressure: 1020.6 mb]
Winds: from the NNW (340 degrees) at 5 MPH (4 knots; 2.1 m/s)
Visibility: 10 or more miles (16+ km)
Ceiling: 3100 feet AGL
Clouds: broken clouds at 3100 feet AGL
Present Weather: no significant weather observed at this time
KSPG 170053Z 34004KT 10SM BKN031 16/12 A3014 RMK AO2 SLP206 T01610122

Conditions at: KSPG observed 16 December 2018  23:53 UTC
Temperature: 16.7°C (62°F)
Dewpoint: 11.7°C (53°F) [RH = 72%]
Pressure (altimeter): 30.12 inches Hg (1020.1 mb)
[Sea-level pressure: 1019.9 mb]
Winds: from the NNW (340 degrees) at 7 MPH (6 knots; 3.1 m/s)
Visibility: 10 or more miles (16+ km)
Ceiling: at least 12,000 feet AGL
Clouds: few clouds at 3500 feet AGL
Present Weather: no significant weather observed at this time
KSPG 162353Z 34006KT 10SM FEW035 17/12 A3012 RMK AO2 SLP199 T01670117 10211 20167 51017

Conditions at: KSPG observed 16 December 2018  22:53 UTC
Temperature: 17.2°C (63°F)
Dewpoint: 12.2°C (54°F) [RH = 72%]
Pressure (altimeter): 30.10 inches Hg (1019.4 mb)
[Sea-level pressure: 1019.4 mb]
Winds: from the NNW (330 degrees) at 14 MPH (12 knots; 6.2 m/s)
Visibility: 10 or more miles (16+ km)
Ceiling: at least 12,000 feet AGL
Clouds: sky clear below 12,000 feet AGL
Present Weather: no significant weather observed at this time
KSPG 162253Z 33012KT 10SM CLR 17/12 A3010 RMK AO2 SLP194 T01720122

Conditions at: KSPG observed 16 December 2018  21:53 UTC
Temperature: 19.4°C (67°F)
Dewpoint: 12.8°C (55°F) [RH = 66%]
Pressure (altimeter): 30.09 inches Hg (1019.0 mb)
[Sea-level pressure: 1019.0 mb]
Winds: from the NNW (340 degrees) at 10 MPH (9 knots; 4.7 m/s)
Visibility: 10 or more miles (16+ km)
Ceiling: at least 12,000 feet AGL
Clouds: sky clear below 12,000 feet AGL
Present Weather: no significant weather observed at this time
KSPG 162153Z 34009KT 10SM CLR 19/13 A3009 RMK AO2 SLP190 T01940128

Conditions at: KSPG observed 16 December 2018  20:53 UTC
Temperature: 20.6°C (69°F)
Dewpoint: 13.9°C (57°F) [RH = 65%]
Pressure (altimeter): 30.07 inches Hg (1018.4 mb)
[Sea-level pressure: 1018.3 mb]
Winds: from the N (350 degrees) at 9 MPH (8 knots; 4.2 m/s)
Visibility: 10 or more miles (16+ km)
Ceiling: at least 12,000 feet AGL
Clouds: sky clear below 12,000 feet AGL
Present Weather: no significant weather observed at this time
KSPG 162053Z 35008KT 10SM CLR 21/14 A3007 RMK AO2 SLP183 T02060139 55007

Conditions at: KSPG observed 16 December 2018  19:53 UTC
Temperature: 20.6°C (69°F)
Dewpoint: 14.4°C (58°F) [RH = 68%]
Pressure (altimeter): 30.06 inches Hg (1018.0 mb)
[Sea-level pressure: 1017.8 mb]
Winds: from the N (360 degrees) at 10 MPH (9 knots; 4.7 m/s)
Visibility: 10 or more miles (16+ km)
Ceiling: at least 12,000 feet AGL
Clouds: few clouds at 2700 feet AGL
Present Weather: no significant weather observed at this time
KSPG 161953Z 36009KT 10SM FEW027 21/14 A3006 RMK AO2 SLP178 T02060144

Conditions at: KSPG observed 16 December 2018  19:15 UTC
Temperature: 20.0°C (68°F)
Dewpoint: 15.6°C (60°F) [RH = 76%]
Pressure (altimeter): 30.06 inches Hg (1018.0 mb)
Winds: from the NE (40 degrees) at 9 MPH (8 knots; 4.2 m/s)
Visibility: 10 or more miles (16+ km)
Ceiling: at least 12,000 feet AGL
Clouds: scattered clouds at 2400 feet AGL
scattered clouds at 3300 feet AGL
Present Weather: no significant weather observed at this time
KSPG 161915Z 04008KT 10SM SCT024 SCT033 20/16 A3006 RMK AO2 T02000156

Conditions at: KSPG observed 16 December 2018  19:03 UTC
Temperature: 19.4°C (67°F)
Dewpoint: 15.0°C (59°F) [RH = 76%]
Pressure (altimeter): 30.06 inches Hg (1018.0 mb)
Winds: from the NNE (30 degrees) at 10 MPH (9 knots; 4.7 m/s)
Visibility: 10 or more miles (16+ km)
Ceiling: 2200 feet AGL
Clouds: broken clouds at 2200 feet AGL
broken clouds at 3100 feet AGL
broken clouds at 4000 feet AGL
Present Weather: no significant weather observed at this time
KSPG 161903Z 03009KT 10SM BKN022 BKN031 BKN040 19/15 A3006 RMK AO2 T01940150

Conditions at: KSPG observed 16 December 2018  18:53 UTC
Temperature: 21.1°C (70°F)
Dewpoint: 15.6°C (60°F) [RH = 71%]
Pressure (altimeter): 30.07 inches Hg (1018.4 mb)
[Sea-level pressure: 1018.1 mb]
Winds: from the NE (40 degrees) at 10 MPH (9 knots; 4.7 m/s)
Visibility: 10 or more miles (16+ km)
Ceiling: 3700 feet AGL
Clouds: scattered clouds at 2200 feet AGL
broken clouds at 3700 feet AGL
Present Weather: no significant weather observed at this time
KSPG 161853Z 04009KT 10SM SCT022 BKN037 21/16 A3007 RMK AO2 SLP181 T02110156

Conditions at: KSPG observed 16 December 2018  18:33 UTC
Temperature: 20.6°C (69°F)
Dewpoint: 15.6°C (60°F) [RH = 73%]
Pressure (altimeter): 30.07 inches Hg (1018.4 mb)
Winds: from the N (10 degrees) at 8 MPH (7 knots; 3.6 m/s)
Visibility: 10 or more miles (16+ km)
Ceiling: 3700 feet AGL
Clouds: few clouds at 2200 feet AGL
scattered clouds at 2900 feet AGL
broken clouds at 3700 feet AGL
Present Weather: no significant weather observed at this time
KSPG 161833Z 01007KT 10SM FEW022 SCT029 BKN037 21/16 A3007 RMK AO2 T02060156

Conditions at: KSPG observed 16 December 2018  17:53 UTC
Temperature: 19.4°C (67°F)
Dewpoint: 15.0°C (59°F) [RH = 76%]
Pressure (altimeter): 30.09 inches Hg (1019.0 mb)
[Sea-level pressure: 1018.9 mb]
Winds: from the NNE (30 degrees) at 12 MPH (10 knots; 5.2 m/s)
Visibility: 10 or more miles (16+ km)
Ceiling: 2000 feet AGL
Clouds: broken clouds at 2000 feet AGL
overcast cloud deck at 2600 feet AGL
Present Weather: no significant weather observed at this time
KSPG 161753Z 03010KT 10SM BKN020 OVC026 19/15 A3009 RMK AO2 SLP189 T01940150 10200 20167 58018

Conditions at: KSPG observed 16 December 2018  17:33 UTC
Temperature: 20.0°C (68°F)
Dewpoint: 15.6°C (60°F) [RH = 76%]
Pressure (altimeter): 30.10 inches Hg (1019.4 mb)
Winds: from the NNE (20 degrees) at 10 MPH (9 knots; 4.7 m/s)
Visibility: 10 or more miles (16+ km)
Ceiling: 1800 feet AGL
Clouds: broken clouds at 1800 feet AGL
Present Weather: no significant weather observed at this time
KSPG 161733Z 02009KT 10SM BKN018 20/16 A3010 RMK AO2 T02000156

Conditions at: KSPG observed 16 December 2018  17:22 UTC
Temperature: 20.0°C (68°F)
Dewpoint: 16.1°C (61°F) [RH = 78%]
Pressure (altimeter): 30.10 inches Hg (1019.4 mb)
Winds: from the NE (40 degrees) at 8 MPH (7 knots; 3.6 m/s)
Visibility: 10 or more miles (16+ km)
Ceiling: at least 12,000 feet AGL
Clouds: scattered clouds at 1900 feet AGL
Present Weather: no significant weather observed at this time
KSPG 161722Z 04007KT 10SM SCT019 20/16 A3010 RMK AO2 T02000161

Conditions at: KSPG observed 16 December 2018  16:53 UTC
Temperature: 18.9°C (66°F)
Dewpoint: 15.6°C (60°F) [RH = 81%]
Pressure (altimeter): 30.12 inches Hg (1020.1 mb)
[Sea-level pressure: 1019.8 mb]
Winds: from the NNE (30 degrees) at 12 MPH (10 knots; 5.2 m/s)
Visibility: 10 or more miles (16+ km)
Ceiling: 1700 feet AGL
Clouds: broken clouds at 1700 feet AGL
broken clouds at 2500 feet AGL
broken clouds at 3900 feet AGL
Present Weather: no significant weather observed at this time
KSPG 161653Z 03010KT 10SM BKN017 BKN025 BKN039 19/16 A3012 RMK AO2 SLP198 T01890156

Conditions at: KSPG observed 16 December 2018  16:21 UTC
Temperature: 18.9°C (66°F)
Dewpoint: 15.6°C (60°F) [RH = 81%]
Pressure (altimeter): 30.13 inches Hg (1020.4 mb)
Winds: from the NNE (30 degrees) at 13 MPH (11 knots; 5.7 m/s)
Visibility: 10 or more miles (16+ km)
Ceiling: 1600 feet AGL
Clouds: broken clouds at 1600 feet AGL
overcast cloud deck at 2000 feet AGL
Present Weather: no significant weather observed at this time
KSPG 161621Z 03011KT 10SM BKN016 OVC020 19/16 A3013 RMK AO2 T01890156

Conditions at: KSPG observed 16 December 2018  15:53 UTC
Temperature: 18.9°C (66°F)
Dewpoint: 16.7°C (62°F) [RH = 87%]
Pressure (altimeter): 30.14 inches Hg (1020.7 mb)
[Sea-level pressure: 1020.5 mb]
Winds: from the NNE (30 degrees) at 7 MPH (6 knots; 3.1 m/s)
Visibility: 10 or more miles (16+ km)
Ceiling: 1200 feet AGL
Clouds: broken clouds at 1200 feet AGL
broken clouds at 2600 feet AGL
overcast cloud deck at 3400 feet AGL
Present Weather: no significant weather observed at this time
KSPG 161553Z 03006KT 10SM BKN012 BKN026 OVC034 19/17 A3014 RMK AO2 SLP205 T01890167

Conditions at: KSPG observed 16 December 2018  15:17 UTC
Temperature: 18.9°C (66°F)
Dewpoint: 17.2°C (63°F) [RH = 90%]
Pressure (altimeter): 30.15 inches Hg (1021.1 mb)
Winds: from the E (80 degrees) at 3 MPH (3 knots; 1.6 m/s)
Visibility: 10 or more miles (16+ km)
Ceiling: 2200 feet AGL
Clouds: broken clouds at 2200 feet AGL
overcast cloud deck at 6500 feet AGL
Present Weather: no significant weather observed at this time
KSPG 161517Z 08003KT 10SM BKN022 OVC065 19/17 A3015 RMK AO2 T01890172

Conditions at: KSPG observed 16 December 2018  14:53 UTC
Temperature: 18.9°C (66°F)
Dewpoint: 16.7°C (62°F) [RH = 87%]
Pressure (altimeter): 30.15 inches Hg (1021.1 mb)
[Sea-level pressure: 1020.8 mb]
Winds: calm
Visibility: 10 or more miles (16+ km)
Ceiling: 6500 feet AGL
Clouds: overcast cloud deck at 6500 feet AGL
Present Weather: no significant weather observed at this time
KSPG 161453Z 00000KT 10SM OVC065 19/17 A3015 RMK AO2 SLP208 T01890167 51016

Conditions at: KSPG observed 16 December 2018  13:53 UTC
Temperature: 17.8°C (64°F)
Dewpoint: 16.7°C (62°F) [RH = 93%]
Pressure (altimeter): 30.13 inches Hg (1020.4 mb)
[Sea-level pressure: 1020.3 mb]
Winds: from the S (170 degrees) at 3 MPH (3 knots; 1.6 m/s)
Visibility: 10 or more miles (16+ km)
Ceiling: 6500 feet AGL
Clouds: broken clouds at 6500 feet AGL
Present Weather: no significant weather observed at this time
KSPG 161353Z 17003KT 10SM BKN065 18/17 A3013 RMK AO2 SLP203 T01780167

Conditions at: KSPG observed 16 December 2018  12:53 UTC
Temperature: 16.7°C (62°F)
Dewpoint: 16.1°C (61°F) [RH = 96%]
Pressure (altimeter): 30.12 inches Hg (1020.1 mb)
[Sea-level pressure: 1019.8 mb]
Winds: calm
Visibility: 5 miles (8 km)
Ceiling: at least 12,000 feet AGL
Clouds: few clouds at 7000 feet AGL
Present Weather: BR  (mist)
KSPG 161253Z 00000KT 5SM BR FEW070 17/16 A3012 RMK AO2 SLP198 T01670161

Conditions at: KSPG observed 16 December 2018  11:53 UTC
Temperature: 17.2°C (63°F)
Dewpoint: 16.1°C (61°F) [RH = 93%]
Pressure (altimeter): 30.10 inches Hg (1019.4 mb)
[Sea-level pressure: 1019.2 mb]
Winds: calm
Visibility: 10 or more miles (16+ km)
Ceiling: 6500 feet AGL
Clouds: broken clouds at 6500 feet AGL
Present Weather: no significant weather observed at this time
KSPG 161153Z 00000KT 10SM BKN065 17/16 A3010 RMK AO2 SLP192 70013 T01720161 10178 20167 53011

Conditions at: KSPG observed 16 December 2018  10:53 UTC
Temperature: 16.7°C (62°F)
Dewpoint: 15.6°C (60°F) [RH = 93%]
Pressure (altimeter): 30.09 inches Hg (1019.0 mb)
[Sea-level pressure: 1018.7 mb]
Winds: calm
Visibility: 10 or more miles (16+ km)
Ceiling: 7000 feet AGL
Clouds: broken clouds at 7000 feet AGL
Present Weather: automated observation with no human augmentation;
there may or may not be significant weather present at this time
KSPG 161053Z AUTO 00000KT 10SM BKN070 17/16 A3009 RMK AO2 SLP187 T01670156

Conditions at: KSPG observed 16 December 2018  09:53 UTC
Temperature: 16.7°C (62°F)
Dewpoint: 15.6°C (60°F) [RH = 93%]
Pressure (altimeter): 30.07 inches Hg (1018.4 mb)
[Sea-level pressure: 1018.1 mb]
Winds: calm
Visibility: 10 or more miles (16+ km)
Ceiling: at least 12,000 feet AGL
Clouds: few clouds at 4200 feet AGL
Present Weather: automated observation with no human augmentation;
there may or may not be significant weather present at this time
KSPG 160953Z AUTO 00000KT 10SM FEW042 17/16 A3007 RMK AO2 SLP181 T01670156

Conditions at: KSPG observed 16 December 2018  08:53 UTC
Temperature: 17.2°C (63°F)
Dewpoint: 15.6°C (60°F) [RH = 90%]
Pressure (altimeter): 30.07 inches Hg (1018.4 mb)
[Sea-level pressure: 1018.1 mb]
Winds: calm
Visibility: 10 or more miles (16+ km)
Ceiling: 6000 feet AGL
Clouds: overcast cloud deck at 6000 feet AGL
Present Weather: automated observation with no human augmentation;
there may or may not be significant weather present at this time
KSPG 160853Z AUTO 00000KT 10SM OVC060 17/16 A3007 RMK AO2 SLP181 T01720156 55002